sensor_id;sensor_type;location;lat;lon;timestamp;P1;durP1;ratioP1;P2;durP2;ratioP2
43857;SDS011;29507;51.284;5.758;2023-05-21T00:00:59;9.70;;;7.18;;
43857;SDS011;29507;51.284;5.758;2023-05-21T00:03:25;9.57;;;5.63;;
43857;SDS011;29507;51.284;5.758;2023-05-21T00:05:53;15.10;;;6.57;;
43857;SDS011;29507;51.284;5.758;2023-05-21T00:08:18;11.07;;;7.53;;
43857;SDS011;29507;51.284;5.758;2023-05-21T00:10:44;10.57;;;5.82;;
43857;SDS011;29507;51.284;5.758;2023-05-21T00:13:10;8.93;;;5.88;;
43857;SDS011;29507;51.284;5.758;2023-05-21T00:15:37;9.13;;;5.78;;
43857;SDS011;29507;51.284;5.758;2023-05-21T00:18:03;11.40;;;6.05;;
43857;SDS011;29507;51.284;5.758;2023-05-21T00:20:28;12.00;;;6.05;;
43857;SDS011;29507;51.284;5.758;2023-05-21T00:22:56;9.93;;;5.93;;
43857;SDS011;29507;51.284;5.758;2023-05-21T00:25:22;9.02;;;5.65;;
43857;SDS011;29507;51.284;5.758;2023-05-21T00:27:48;10.95;;;5.78;;
43857;SDS011;29507;51.284;5.758;2023-05-21T00:30:13;9.18;;;5.90;;
43857;SDS011;29507;51.284;5.758;2023-05-21T00:32:40;9.10;;;5.78;;
43857;SDS011;29507;51.284;5.758;2023-05-21T00:35:05;11.35;;;5.75;;
43857;SDS011;29507;51.284;5.758;2023-05-21T00:37:32;8.98;;;5.68;;
43857;SDS011;29507;51.284;5.758;2023-05-21T00:39:58;8.07;;;5.50;;
43857;SDS011;29507;51.284;5.758;2023-05-21T00:42:25;10.50;;;6.20;;
43857;SDS011;29507;51.284;5.758;2023-05-21T00:44:51;10.10;;;6.20;;
43857;SDS011;29507;51.284;5.758;2023-05-21T00:47:18;11.32;;;6.20;;
43857;SDS011;29507;51.284;5.758;2023-05-21T00:49:45;11.43;;;5.72;;
43857;SDS011;29507;51.284;5.758;2023-05-21T00:52:12;12.73;;;6.80;;
43857;SDS011;29507;51.284;5.758;2023-05-21T00:54:39;10.95;;;6.38;;
43857;SDS011;29507;51.284;5.758;2023-05-21T00:57:04;12.48;;;7.50;;
43857;SDS011;29507;51.284;5.758;2023-05-21T00:59:31;10.68;;;6.15;;
43857;SDS011;29507;51.284;5.758;2023-05-21T01:01:57;11.20;;;6.22;;
43857;SDS011;29507;51.284;5.758;2023-05-21T01:04:28;9.55;;;6.15;;
43857;SDS011;29507;51.284;5.758;2023-05-21T01:06:54;11.00;;;6.93;;
43857;SDS011;29507;51.284;5.758;2023-05-21T01:09:20;10.32;;;6.43;;
43857;SDS011;29507;51.284;5.758;2023-05-21T01:11:47;10.93;;;6.45;;
43857;SDS011;29507;51.284;5.758;2023-05-21T01:14:15;11.98;;;7.18;;
43857;SDS011;29507;51.284;5.758;2023-05-21T01:16:42;10.73;;;6.57;;
43857;SDS011;29507;51.284;5.758;2023-05-21T01:19:15;11.23;;;7.28;;
43857;SDS011;29507;51.284;5.758;2023-05-21T01:21:48;11.45;;;6.40;;
43857;SDS011;29507;51.284;5.758;2023-05-21T01:24:16;12.52;;;6.88;;
43857;SDS011;29507;51.284;5.758;2023-05-21T01:26:43;12.20;;;6.85;;
43857;SDS011;29507;51.284;5.758;2023-05-21T01:29:10;11.27;;;6.53;;
43857;SDS011;29507;51.284;5.758;2023-05-21T01:34:25;8.10;;;5.47;;
43857;SDS011;29507;51.284;5.758;2023-05-21T01:37:11;11.68;;;6.28;;
43857;SDS011;29507;51.284;5.758;2023-05-21T01:39:43;14.52;;;5.78;;
43857;SDS011;29507;51.284;5.758;2023-05-21T01:42:14;11.02;;;6.35;;
43857;SDS011;29507;51.284;5.758;2023-05-21T01:44:42;14.13;;;6.30;;
43857;SDS011;29507;51.284;5.758;2023-05-21T01:47:09;12.25;;;6.43;;
43857;SDS011;29507;51.284;5.758;2023-05-21T01:49:36;15.95;;;7.28;;
43857;SDS011;29507;51.284;5.758;2023-05-21T01:52:02;8.82;;;5.53;;
43857;SDS011;29507;51.284;5.758;2023-05-21T01:54:28;10.15;;;6.28;;
43857;SDS011;29507;51.284;5.758;2023-05-21T01:56:54;11.30;;;6.50;;
43857;SDS011;29507;51.284;5.758;2023-05-21T01:59:20;10.95;;;6.35;;
43857;SDS011;29507;51.284;5.758;2023-05-21T02:01:46;9.93;;;6.07;;
43857;SDS011;29507;51.284;5.758;2023-05-21T02:04:12;9.63;;;5.82;;
43857;SDS011;29507;51.284;5.758;2023-05-21T02:06:37;11.30;;;5.97;;
43857;SDS011;29507;51.284;5.758;2023-05-21T02:09:03;8.38;;;5.57;;
43857;SDS011;29507;51.284;5.758;2023-05-21T02:11:29;10.30;;;6.40;;
43857;SDS011;29507;51.284;5.758;2023-05-21T02:13:55;11.52;;;6.75;;
43857;SDS011;29507;51.284;5.758;2023-05-21T02:16:21;11.40;;;6.78;;
43857;SDS011;29507;51.284;5.758;2023-05-21T02:18:46;10.70;;;6.43;;
43857;SDS011;29507;51.284;5.758;2023-05-21T02:21:15;10.93;;;6.20;;
43857;SDS011;29507;51.284;5.758;2023-05-21T02:23:41;10.15;;;6.25;;
43857;SDS011;29507;51.284;5.758;2023-05-21T02:26:07;10.85;;;6.07;;
43857;SDS011;29507;51.284;5.758;2023-05-21T02:28:33;13.65;;;6.20;;
43857;SDS011;29507;51.284;5.758;2023-05-21T02:31:00;10.60;;;6.25;;
43857;SDS011;29507;51.284;5.758;2023-05-21T02:33:25;11.70;;;6.07;;
43857;SDS011;29507;51.284;5.758;2023-05-21T02:35:51;13.60;;;7.10;;
43857;SDS011;29507;51.284;5.758;2023-05-21T02:38:16;14.13;;;6.90;;
43857;SDS011;29507;51.284;5.758;2023-05-21T02:40:43;10.95;;;6.50;;
43857;SDS011;29507;51.284;5.758;2023-05-21T02:43:09;15.45;;;6.72;;
43857;SDS011;29507;51.284;5.758;2023-05-21T02:45:35;11.30;;;6.72;;
43857;SDS011;29507;51.284;5.758;2023-05-21T02:48:01;10.73;;;6.25;;
43857;SDS011;29507;51.284;5.758;2023-05-21T02:50:26;11.50;;;6.57;;
43857;SDS011;29507;51.284;5.758;2023-05-21T02:52:52;13.73;;;6.85;;
43857;SDS011;29507;51.284;5.758;2023-05-21T02:55:17;13.13;;;6.88;;
43857;SDS011;29507;51.284;5.758;2023-05-21T02:57:43;11.20;;;6.60;;
43857;SDS011;29507;51.284;5.758;2023-05-21T03:00:09;12.85;;;6.60;;
43857;SDS011;29507;51.284;5.758;2023-05-21T03:02:35;12.52;;;6.97;;
43857;SDS011;29507;51.284;5.758;2023-05-21T03:05:01;12.27;;;6.55;;
43857;SDS011;29507;51.284;5.758;2023-05-21T03:07:26;13.10;;;6.28;;
43857;SDS011;29507;51.284;5.758;2023-05-21T03:09:52;10.98;;;7.05;;
43857;SDS011;29507;51.284;5.758;2023-05-21T03:12:18;11.63;;;7.00;;
43857;SDS011;29507;51.284;5.758;2023-05-21T03:14:44;9.40;;;5.57;;
43857;SDS011;29507;51.284;5.758;2023-05-21T03:17:10;11.98;;;6.25;;
43857;SDS011;29507;51.284;5.758;2023-05-21T03:19:38;11.85;;;5.85;;
43857;SDS011;29507;51.284;5.758;2023-05-21T03:22:05;10.23;;;5.72;;
43857;SDS011;29507;51.284;5.758;2023-05-21T03:24:31;13.63;;;6.47;;
43857;SDS011;29507;51.284;5.758;2023-05-21T03:26:57;13.75;;;6.80;;
43857;SDS011;29507;51.284;5.758;2023-05-21T03:29:24;10.73;;;6.15;;
43857;SDS011;29507;51.284;5.758;2023-05-21T03:31:51;14.15;;;6.30;;
43857;SDS011;29507;51.284;5.758;2023-05-21T03:34:17;11.35;;;6.28;;
43857;SDS011;29507;51.284;5.758;2023-05-21T03:36:44;11.35;;;6.18;;
43857;SDS011;29507;51.284;5.758;2023-05-21T03:39:10;10.98;;;5.72;;
43857;SDS011;29507;51.284;5.758;2023-05-21T03:41:36;10.88;;;5.63;;
43857;SDS011;29507;51.284;5.758;2023-05-21T03:44:01;10.57;;;5.93;;
43857;SDS011;29507;51.284;5.758;2023-05-21T03:46:27;11.57;;;5.93;;
43857;SDS011;29507;51.284;5.758;2023-05-21T03:48:53;11.05;;;5.35;;
43857;SDS011;29507;51.284;5.758;2023-05-21T03:51:18;10.35;;;6.18;;
43857;SDS011;29507;51.284;5.758;2023-05-21T03:53:44;11.45;;;6.38;;
43857;SDS011;29507;51.284;5.758;2023-05-21T03:56:10;10.10;;;5.97;;
43857;SDS011;29507;51.284;5.758;2023-05-21T03:58:36;10.07;;;5.75;;
43857;SDS011;29507;51.284;5.758;2023-05-21T04:01:02;9.75;;;5.07;;
43857;SDS011;29507;51.284;5.758;2023-05-21T04:03:28;13.20;;;7.40;;
43857;SDS011;29507;51.284;5.758;2023-05-21T04:05:54;8.95;;;5.30;;
43857;SDS011;29507;51.284;5.758;2023-05-21T04:08:20;11.18;;;5.88;;
43857;SDS011;29507;51.284;5.758;2023-05-21T04:10:46;9.80;;;5.85;;
43857;SDS011;29507;51.284;5.758;2023-05-21T04:13:11;11.13;;;6.03;;
43857;SDS011;29507;51.284;5.758;2023-05-21T04:15:37;12.50;;;5.22;;
43857;SDS011;29507;51.284;5.758;2023-05-21T04:18:03;10.77;;;5.75;;
43857;SDS011;29507;51.284;5.758;2023-05-21T04:20:29;9.45;;;5.25;;
43857;SDS011;29507;51.284;5.758;2023-05-21T04:22:54;8.75;;;5.40;;
43857;SDS011;29507;51.284;5.758;2023-05-21T04:25:20;9.73;;;5.80;;
43857;SDS011;29507;51.284;5.758;2023-05-21T04:27:47;9.40;;;5.70;;
43857;SDS011;29507;51.284;5.758;2023-05-21T04:30:13;9.52;;;5.25;;
43857;SDS011;29507;51.284;5.758;2023-05-21T04:32:39;9.07;;;5.13;;
43857;SDS011;29507;51.284;5.758;2023-05-21T04:35:05;8.52;;;5.22;;
43857;SDS011;29507;51.284;5.758;2023-05-21T04:37:31;9.43;;;5.72;;
43857;SDS011;29507;51.284;5.758;2023-05-21T04:39:59;9.10;;;5.50;;
43857;SDS011;29507;51.284;5.758;2023-05-21T04:42:25;10.52;;;5.38;;
43857;SDS011;29507;51.284;5.758;2023-05-21T04:44:51;13.73;;;5.72;;
43857;SDS011;29507;51.284;5.758;2023-05-21T04:47:19;10.10;;;5.13;;
43857;SDS011;29507;51.284;5.758;2023-05-21T04:49:45;10.13;;;5.50;;
43857;SDS011;29507;51.284;5.758;2023-05-21T04:52:11;9.65;;;6.00;;
43857;SDS011;29507;51.284;5.758;2023-05-21T04:54:36;8.80;;;5.95;;
43857;SDS011;29507;51.284;5.758;2023-05-21T04:57:03;9.40;;;5.20;;
43857;SDS011;29507;51.284;5.758;2023-05-21T04:59:29;12.43;;;5.10;;
43857;SDS011;29507;51.284;5.758;2023-05-21T05:01:55;8.55;;;5.70;;
43857;SDS011;29507;51.284;5.758;2023-05-21T05:04:21;10.52;;;5.45;;
43857;SDS011;29507;51.284;5.758;2023-05-21T05:06:47;9.02;;;5.07;;
43857;SDS011;29507;51.284;5.758;2023-05-21T05:09:12;7.45;;;5.13;;
43857;SDS011;29507;51.284;5.758;2023-05-21T05:11:38;19.90;;;5.05;;
43857;SDS011;29507;51.284;5.758;2023-05-21T05:14:04;9.90;;;5.05;;
43857;SDS011;29507;51.284;5.758;2023-05-21T05:16:29;9.02;;;5.47;;
43857;SDS011;29507;51.284;5.758;2023-05-21T05:18:55;8.77;;;4.93;;
43857;SDS011;29507;51.284;5.758;2023-05-21T05:21:21;8.60;;;5.40;;
43857;SDS011;29507;51.284;5.758;2023-05-21T05:23:47;10.77;;;5.38;;
43857;SDS011;29507;51.284;5.758;2023-05-21T05:26:13;10.23;;;5.35;;
43857;SDS011;29507;51.284;5.758;2023-05-21T05:28:38;7.95;;;5.30;;
43857;SDS011;29507;51.284;5.758;2023-05-21T05:31:04;9.20;;;5.35;;
43857;SDS011;29507;51.284;5.758;2023-05-21T05:33:29;8.35;;;4.68;;
43857;SDS011;29507;51.284;5.758;2023-05-21T05:35:55;9.27;;;5.15;;
43857;SDS011;29507;51.284;5.758;2023-05-21T05:38:20;8.23;;;5.28;;
43857;SDS011;29507;51.284;5.758;2023-05-21T05:40:46;7.47;;;4.97;;
43857;SDS011;29507;51.284;5.758;2023-05-21T05:43:12;7.75;;;4.75;;
43857;SDS011;29507;51.284;5.758;2023-05-21T05:45:37;8.35;;;5.22;;
43857;SDS011;29507;51.284;5.758;2023-05-21T05:48:03;8.48;;;4.88;;
43857;SDS011;29507;51.284;5.758;2023-05-21T05:50:29;10.55;;;4.88;;
43857;SDS011;29507;51.284;5.758;2023-05-21T05:52:54;7.93;;;5.20;;
43857;SDS011;29507;51.284;5.758;2023-05-21T05:55:20;8.98;;;5.50;;
43857;SDS011;29507;51.284;5.758;2023-05-21T05:57:46;9.00;;;5.13;;
43857;SDS011;29507;51.284;5.758;2023-05-21T06:00:12;7.53;;;4.97;;
43857;SDS011;29507;51.284;5.758;2023-05-21T06:02:38;7.38;;;4.80;;
43857;SDS011;29507;51.284;5.758;2023-05-21T06:05:04;7.85;;;4.97;;
43857;SDS011;29507;51.284;5.758;2023-05-21T06:07:30;9.55;;;5.30;;
43857;SDS011;29507;51.284;5.758;2023-05-21T06:09:56;11.75;;;5.55;;
43857;SDS011;29507;51.284;5.758;2023-05-21T06:12:22;10.50;;;5.47;;
43857;SDS011;29507;51.284;5.758;2023-05-21T06:14:48;8.90;;;5.78;;
43857;SDS011;29507;51.284;5.758;2023-05-21T06:17:14;10.10;;;5.28;;
43857;SDS011;29507;51.284;5.758;2023-05-21T06:19:40;8.60;;;5.07;;
43857;SDS011;29507;51.284;5.758;2023-05-21T06:22:06;7.78;;;5.38;;
43857;SDS011;29507;51.284;5.758;2023-05-21T06:24:31;8.55;;;5.35;;
43857;SDS011;29507;51.284;5.758;2023-05-21T06:26:57;9.18;;;5.03;;
43857;SDS011;29507;51.284;5.758;2023-05-21T06:29:22;8.43;;;4.82;;
43857;SDS011;29507;51.284;5.758;2023-05-21T06:31:48;9.13;;;5.22;;
43857;SDS011;29507;51.284;5.758;2023-05-21T06:34:14;9.02;;;5.45;;
43857;SDS011;29507;51.284;5.758;2023-05-21T06:36:39;7.95;;;5.00;;
43857;SDS011;29507;51.284;5.758;2023-05-21T06:39:05;8.57;;;5.05;;
43857;SDS011;29507;51.284;5.758;2023-05-21T06:41:31;10.38;;;5.05;;
43857;SDS011;29507;51.284;5.758;2023-05-21T06:43:56;9.32;;;5.40;;
43857;SDS011;29507;51.284;5.758;2023-05-21T06:46:22;9.98;;;4.97;;
43857;SDS011;29507;51.284;5.758;2023-05-21T06:48:47;8.98;;;5.03;;
43857;SDS011;29507;51.284;5.758;2023-05-21T06:51:13;7.68;;;4.95;;
43857;SDS011;29507;51.284;5.758;2023-05-21T06:53:39;7.57;;;4.55;;
43857;SDS011;29507;51.284;5.758;2023-05-21T06:56:04;8.98;;;5.00;;
43857;SDS011;29507;51.284;5.758;2023-05-21T06:58:30;13.93;;;5.30;;
43857;SDS011;29507;51.284;5.758;2023-05-21T07:00:56;8.70;;;4.90;;
43857;SDS011;29507;51.284;5.758;2023-05-21T07:03:22;9.15;;;5.47;;
43857;SDS011;29507;51.284;5.758;2023-05-21T07:05:48;7.97;;;5.40;;
43857;SDS011;29507;51.284;5.758;2023-05-21T07:08:13;12.75;;;5.43;;
43857;SDS011;29507;51.284;5.758;2023-05-21T07:10:39;11.10;;;4.57;;
43857;SDS011;29507;51.284;5.758;2023-05-21T07:13:06;8.13;;;5.05;;
43857;SDS011;29507;51.284;5.758;2023-05-21T07:15:32;7.97;;;4.88;;
43857;SDS011;29507;51.284;5.758;2023-05-21T07:17:57;9.40;;;5.07;;
43857;SDS011;29507;51.284;5.758;2023-05-21T07:20:23;11.88;;;5.00;;
43857;SDS011;29507;51.284;5.758;2023-05-21T07:22:48;8.52;;;5.53;;
43857;SDS011;29507;51.284;5.758;2023-05-21T07:25:14;7.75;;;4.68;;
43857;SDS011;29507;51.284;5.758;2023-05-21T07:27:40;7.97;;;5.07;;
43857;SDS011;29507;51.284;5.758;2023-05-21T07:30:07;10.18;;;5.47;;
43857;SDS011;29507;51.284;5.758;2023-05-21T07:32:33;8.57;;;4.93;;
43857;SDS011;29507;51.284;5.758;2023-05-21T07:34:59;8.15;;;4.85;;
43857;SDS011;29507;51.284;5.758;2023-05-21T07:37:27;9.90;;;5.87;;
43857;SDS011;29507;51.284;5.758;2023-05-21T07:39:53;13.63;;;6.95;;
43857;SDS011;29507;51.284;5.758;2023-05-21T07:42:25;9.13;;;5.20;;
43857;SDS011;29507;51.284;5.758;2023-05-21T07:44:50;11.35;;;6.18;;
43857;SDS011;29507;51.284;5.758;2023-05-21T07:47:16;12.80;;;5.05;;
43857;SDS011;29507;51.284;5.758;2023-05-21T07:49:42;8.98;;;5.13;;
43857;SDS011;29507;51.284;5.758;2023-05-21T07:52:07;8.57;;;5.25;;
43857;SDS011;29507;51.284;5.758;2023-05-21T07:54:33;7.13;;;4.82;;
43857;SDS011;29507;51.284;5.758;2023-05-21T07:56:59;8.98;;;5.40;;
43857;SDS011;29507;51.284;5.758;2023-05-21T07:59:27;9.48;;;5.10;;
43857;SDS011;29507;51.284;5.758;2023-05-21T08:01:52;8.40;;;5.25;;
43857;SDS011;29507;51.284;5.758;2023-05-21T08:04:18;9.88;;;5.22;;
43857;SDS011;29507;51.284;5.758;2023-05-21T08:06:44;7.70;;;5.18;;
43857;SDS011;29507;51.284;5.758;2023-05-21T08:09:10;9.90;;;5.68;;
43857;SDS011;29507;51.284;5.758;2023-05-21T08:11:36;8.25;;;5.20;;
43857;SDS011;29507;51.284;5.758;2023-05-21T08:14:01;9.07;;;5.75;;
43857;SDS011;29507;51.284;5.758;2023-05-21T08:16:27;7.72;;;5.40;;
43857;SDS011;29507;51.284;5.758;2023-05-21T08:18:53;8.52;;;5.65;;
43857;SDS011;29507;51.284;5.758;2023-05-21T08:21:18;9.25;;;5.07;;
43857;SDS011;29507;51.284;5.758;2023-05-21T08:23:44;9.38;;;6.28;;
43857;SDS011;29507;51.284;5.758;2023-05-21T08:26:10;7.90;;;5.75;;
43857;SDS011;29507;51.284;5.758;2023-05-21T08:28:39;9.43;;;5.75;;
43857;SDS011;29507;51.284;5.758;2023-05-21T08:31:04;9.02;;;5.15;;
43857;SDS011;29507;51.284;5.758;2023-05-21T08:33:30;9.35;;;5.65;;
43857;SDS011;29507;51.284;5.758;2023-05-21T08:35:55;11.57;;;5.55;;
43857;SDS011;29507;51.284;5.758;2023-05-21T08:38:21;10.00;;;5.85;;
43857;SDS011;29507;51.284;5.758;2023-05-21T08:40:46;11.55;;;6.03;;
43857;SDS011;29507;51.284;5.758;2023-05-21T08:43:15;10.37;;;7.10;;
43857;SDS011;29507;51.284;5.758;2023-05-21T08:45:43;12.05;;;6.43;;
43857;SDS011;29507;51.284;5.758;2023-05-21T08:48:11;9.15;;;5.50;;
43857;SDS011;29507;51.284;5.758;2023-05-21T08:50:40;8.73;;;5.53;;
43857;SDS011;29507;51.284;5.758;2023-05-21T08:53:07;10.80;;;6.07;;
43857;SDS011;29507;51.284;5.758;2023-05-21T08:55:33;13.07;;;6.15;;
43857;SDS011;29507;51.284;5.758;2023-05-21T08:58:00;10.25;;;6.63;;
43857;SDS011;29507;51.284;5.758;2023-05-21T09:00:28;12.18;;;6.90;;
43857;SDS011;29507;51.284;5.758;2023-05-21T09:02:53;9.93;;;6.55;;
43857;SDS011;29507;51.284;5.758;2023-05-21T09:05:20;10.18;;;6.30;;
43857;SDS011;29507;51.284;5.758;2023-05-21T09:10:25;8.93;;;6.50;;
43857;SDS011;29507;51.284;5.758;2023-05-21T09:12:57;10.52;;;6.75;;
43857;SDS011;29507;51.284;5.758;2023-05-21T09:15:23;8.50;;;6.25;;
43857;SDS011;29507;51.284;5.758;2023-05-21T09:17:49;12.25;;;7.10;;
43857;SDS011;29507;51.284;5.758;2023-05-21T09:20:15;11.88;;;7.03;;
43857;SDS011;29507;51.284;5.758;2023-05-21T09:22:42;10.43;;;7.05;;
43857;SDS011;29507;51.284;5.758;2023-05-21T09:25:15;11.85;;;7.32;;
43857;SDS011;29507;51.284;5.758;2023-05-21T09:27:42;11.32;;;7.28;;
43857;SDS011;29507;51.284;5.758;2023-05-21T09:30:09;10.18;;;7.18;;
43857;SDS011;29507;51.284;5.758;2023-05-21T09:32:36;10.38;;;6.50;;
43857;SDS011;29507;51.284;5.758;2023-05-21T09:40:01;10.95;;;7.18;;
43857;SDS011;29507;51.284;5.758;2023-05-21T09:42:40;8.80;;;6.35;;
43857;SDS011;29507;51.284;5.758;2023-05-21T09:45:08;11.88;;;7.97;;
43857;SDS011;29507;51.284;5.758;2023-05-21T09:47:42;10.45;;;7.40;;
43857;SDS011;29507;51.284;5.758;2023-05-21T09:50:26;11.00;;;7.05;;
43857;SDS011;29507;51.284;5.758;2023-05-21T09:52:52;11.40;;;7.60;;
43857;SDS011;29507;51.284;5.758;2023-05-21T09:55:23;10.52;;;7.13;;
43857;SDS011;29507;51.284;5.758;2023-05-21T09:57:50;9.65;;;7.45;;
43857;SDS011;29507;51.284;5.758;2023-05-21T10:00:18;14.55;;;8.48;;
43857;SDS011;29507;51.284;5.758;2023-05-21T10:05:13;12.07;;;7.90;;
43857;SDS011;29507;51.284;5.758;2023-05-21T10:07:49;10.80;;;7.88;;
43857;SDS011;29507;51.284;5.758;2023-05-21T10:10:16;13.23;;;8.43;;
43857;SDS011;29507;51.284;5.758;2023-05-21T10:12:45;11.48;;;7.88;;
43857;SDS011;29507;51.284;5.758;2023-05-21T10:15:18;13.85;;;8.77;;
43857;SDS011;29507;51.284;5.758;2023-05-21T10:17:47;11.20;;;7.40;;
43857;SDS011;29507;51.284;5.758;2023-05-21T10:20:13;11.45;;;6.47;;
43857;SDS011;29507;51.284;5.758;2023-05-21T10:22:40;11.18;;;7.25;;
43857;SDS011;29507;51.284;5.758;2023-05-21T10:25:06;11.55;;;7.72;;
43857;SDS011;29507;51.284;5.758;2023-05-21T10:27:32;12.35;;;7.47;;
43857;SDS011;29507;51.284;5.758;2023-05-21T10:30:03;11.65;;;7.88;;
43857;SDS011;29507;51.284;5.758;2023-05-21T10:32:30;14.05;;;7.65;;
43857;SDS011;29507;51.284;5.758;2023-05-21T10:34:56;12.43;;;7.93;;
43857;SDS011;29507;51.284;5.758;2023-05-21T10:37:22;12.57;;;8.25;;
43857;SDS011;29507;51.284;5.758;2023-05-21T10:39:52;12.90;;;8.57;;
43857;SDS011;29507;51.284;5.758;2023-05-21T10:47:52;14.60;;;8.48;;
43857;SDS011;29507;51.284;5.758;2023-05-21T10:50:52;15.15;;;9.07;;
43857;SDS011;29507;51.284;5.758;2023-05-21T10:53:44;12.55;;;8.73;;
43857;SDS011;29507;51.284;5.758;2023-05-21T10:59:16;12.43;;;8.23;;
43857;SDS011;29507;51.284;5.758;2023-05-21T11:01:49;11.27;;;8.07;;
43857;SDS011;29507;51.284;5.758;2023-05-21T11:04:24;12.68;;;7.43;;
43857;SDS011;29507;51.284;5.758;2023-05-21T11:06:51;12.95;;;8.95;;
43857;SDS011;29507;51.284;5.758;2023-05-21T11:09:16;14.73;;;8.93;;
43857;SDS011;29507;51.284;5.758;2023-05-21T11:15:15;13.10;;;9.00;;
43857;SDS011;29507;51.284;5.758;2023-05-21T11:17:40;17.73;;;8.00;;
43857;SDS011;29507;51.284;5.758;2023-05-21T11:20:11;13.15;;;8.35;;
43857;SDS011;29507;51.284;5.758;2023-05-21T11:22:41;12.18;;;8.60;;
43857;SDS011;29507;51.284;5.758;2023-05-21T11:25:06;14.00;;;9.00;;
43857;SDS011;29507;51.284;5.758;2023-05-21T11:27:33;14.27;;;8.63;;
43857;SDS011;29507;51.284;5.758;2023-05-21T11:30:17;14.18;;;8.85;;
43857;SDS011;29507;51.284;5.758;2023-05-21T11:38:10;13.38;;;7.72;;
43857;SDS011;29507;51.284;5.758;2023-05-21T11:40:35;12.30;;;7.18;;
43857;SDS011;29507;51.284;5.758;2023-05-21T11:43:01;12.05;;;7.93;;
43857;SDS011;29507;51.284;5.758;2023-05-21T11:45:28;14.02;;;7.93;;
43857;SDS011;29507;51.284;5.758;2023-05-21T11:47:55;13.40;;;7.55;;
43857;SDS011;29507;51.284;5.758;2023-05-21T11:50:21;10.05;;;7.70;;
43857;SDS011;29507;51.284;5.758;2023-05-21T11:52:47;11.90;;;7.75;;
43857;SDS011;29507;51.284;5.758;2023-05-21T11:55:14;11.90;;;8.23;;
43857;SDS011;29507;51.284;5.758;2023-05-21T11:57:42;12.75;;;8.43;;
43857;SDS011;29507;51.284;5.758;2023-05-21T12:00:12;14.73;;;8.60;;
43857;SDS011;29507;51.284;5.758;2023-05-21T12:02:43;12.98;;;8.75;;
43857;SDS011;29507;51.284;5.758;2023-05-21T12:05:10;12.77;;;8.00;;
43857;SDS011;29507;51.284;5.758;2023-05-21T12:07:36;13.65;;;8.65;;
43857;SDS011;29507;51.284;5.758;2023-05-21T12:10:02;13.00;;;9.27;;
43857;SDS011;29507;51.284;5.758;2023-05-21T12:12:28;12.35;;;9.13;;
43857;SDS011;29507;51.284;5.758;2023-05-21T12:14:56;12.80;;;8.80;;
43857;SDS011;29507;51.284;5.758;2023-05-21T12:17:23;12.60;;;7.85;;
43857;SDS011;29507;51.284;5.758;2023-05-21T12:19:51;11.70;;;7.95;;
43857;SDS011;29507;51.284;5.758;2023-05-21T12:22:17;14.27;;;9.35;;
43857;SDS011;29507;51.284;5.758;2023-05-21T12:24:43;14.13;;;8.73;;
43857;SDS011;29507;51.284;5.758;2023-05-21T12:27:09;11.68;;;8.30;;
43857;SDS011;29507;51.284;5.758;2023-05-21T12:29:40;12.93;;;7.47;;
43857;SDS011;29507;51.284;5.758;2023-05-21T12:32:08;16.88;;;9.35;;
43857;SDS011;29507;51.284;5.758;2023-05-21T12:34:38;14.55;;;9.48;;
43857;SDS011;29507;51.284;5.758;2023-05-21T12:39:50;13.68;;;8.40;;
43857;SDS011;29507;51.284;5.758;2023-05-21T12:42:23;13.73;;;8.43;;
43857;SDS011;29507;51.284;5.758;2023-05-21T12:44:53;10.43;;;6.95;;
43857;SDS011;29507;51.284;5.758;2023-05-21T12:47:23;13.23;;;9.10;;
43857;SDS011;29507;51.284;5.758;2023-05-21T12:49:53;12.48;;;7.88;;
43857;SDS011;29507;51.284;5.758;2023-05-21T12:52:21;14.25;;;8.85;;
43857;SDS011;29507;51.284;5.758;2023-05-21T12:54:49;17.20;;;8.68;;
43857;SDS011;29507;51.284;5.758;2023-05-21T12:57:26;13.07;;;8.40;;
43857;SDS011;29507;51.284;5.758;2023-05-21T12:59:59;13.85;;;7.78;;
43857;SDS011;29507;51.284;5.758;2023-05-21T13:02:32;11.38;;;8.10;;
43857;SDS011;29507;51.284;5.758;2023-05-21T13:05:01;10.32;;;7.60;;
43857;SDS011;29507;51.284;5.758;2023-05-21T13:07:28;12.13;;;8.25;;
43857;SDS011;29507;51.284;5.758;2023-05-21T13:09:55;12.73;;;8.90;;
43857;SDS011;29507;51.284;5.758;2023-05-21T13:12:22;15.23;;;8.70;;
43857;SDS011;29507;51.284;5.758;2023-05-21T13:14:49;14.13;;;8.55;;
43857;SDS011;29507;51.284;5.758;2023-05-21T13:17:16;11.10;;;8.20;;
43857;SDS011;29507;51.284;5.758;2023-05-21T13:19:42;19.25;;;8.90;;
43857;SDS011;29507;51.284;5.758;2023-05-21T13:22:30;12.05;;;8.00;;
43857;SDS011;29507;51.284;5.758;2023-05-21T13:24:55;13.52;;;8.30;;
43857;SDS011;29507;51.284;5.758;2023-05-21T13:27:21;12.55;;;8.77;;
43857;SDS011;29507;51.284;5.758;2023-05-21T13:29:46;15.45;;;8.73;;
43857;SDS011;29507;51.284;5.758;2023-05-21T13:32:12;12.07;;;8.43;;
43857;SDS011;29507;51.284;5.758;2023-05-21T13:34:38;12.30;;;8.07;;
43857;SDS011;29507;51.284;5.758;2023-05-21T13:37:03;16.85;;;9.15;;
43857;SDS011;29507;51.284;5.758;2023-05-21T13:39:29;10.95;;;6.63;;
43857;SDS011;29507;51.284;5.758;2023-05-21T13:41:54;12.38;;;7.85;;
43857;SDS011;29507;51.284;5.758;2023-05-21T13:44:20;14.90;;;6.90;;
43857;SDS011;29507;51.284;5.758;2023-05-21T13:46:46;11.00;;;7.60;;
43857;SDS011;29507;51.284;5.758;2023-05-21T13:49:11;12.40;;;8.35;;
43857;SDS011;29507;51.284;5.758;2023-05-21T13:51:37;19.45;;;8.77;;
43857;SDS011;29507;51.284;5.758;2023-05-21T13:54:02;18.38;;;7.80;;
43857;SDS011;29507;51.284;5.758;2023-05-21T13:56:28;10.23;;;7.68;;
43857;SDS011;29507;51.284;5.758;2023-05-21T13:58:56;12.38;;;8.55;;
43857;SDS011;29507;51.284;5.758;2023-05-21T14:01:22;12.15;;;8.07;;
43857;SDS011;29507;51.284;5.758;2023-05-21T14:03:47;13.05;;;8.70;;
43857;SDS011;29507;51.284;5.758;2023-05-21T14:06:13;10.27;;;7.90;;
43857;SDS011;29507;51.284;5.758;2023-05-21T14:08:38;11.68;;;8.55;;
43857;SDS011;29507;51.284;5.758;2023-05-21T14:11:05;12.73;;;8.55;;
43857;SDS011;29507;51.284;5.758;2023-05-21T14:13:30;12.70;;;7.75;;
43857;SDS011;29507;51.284;5.758;2023-05-21T14:15:56;11.38;;;7.65;;
43857;SDS011;29507;51.284;5.758;2023-05-21T14:18:22;12.35;;;8.65;;
43857;SDS011;29507;51.284;5.758;2023-05-21T14:20:47;11.90;;;7.95;;
43857;SDS011;29507;51.284;5.758;2023-05-21T14:23:13;11.20;;;7.63;;
43857;SDS011;29507;51.284;5.758;2023-05-21T14:25:40;12.55;;;8.95;;
43857;SDS011;29507;51.284;5.758;2023-05-21T14:28:06;13.60;;;8.18;;
43857;SDS011;29507;51.284;5.758;2023-05-21T14:30:31;12.35;;;7.57;;
43857;SDS011;29507;51.284;5.758;2023-05-21T14:32:57;11.18;;;8.35;;
43857;SDS011;29507;51.284;5.758;2023-05-21T14:35:23;14.02;;;8.90;;
43857;SDS011;29507;51.284;5.758;2023-05-21T14:37:48;13.68;;;8.77;;
43857;SDS011;29507;51.284;5.758;2023-05-21T14:40:14;15.00;;;9.05;;
43857;SDS011;29507;51.284;5.758;2023-05-21T14:42:40;16.15;;;8.35;;
43857;SDS011;29507;51.284;5.758;2023-05-21T14:45:05;11.93;;;8.18;;
43857;SDS011;29507;51.284;5.758;2023-05-21T14:47:31;11.40;;;7.40;;
43857;SDS011;29507;51.284;5.758;2023-05-21T14:49:57;11.27;;;8.70;;
43857;SDS011;29507;51.284;5.758;2023-05-21T14:52:22;12.80;;;7.97;;
43857;SDS011;29507;51.284;5.758;2023-05-21T14:54:48;12.43;;;7.63;;
43857;SDS011;29507;51.284;5.758;2023-05-21T14:57:13;16.52;;;9.02;;
43857;SDS011;29507;51.284;5.758;2023-05-21T14:59:39;10.70;;;8.65;;
43857;SDS011;29507;51.284;5.758;2023-05-21T15:02:05;13.15;;;8.13;;
43857;SDS011;29507;51.284;5.758;2023-05-21T15:04:31;14.50;;;8.55;;
43857;SDS011;29507;51.284;5.758;2023-05-21T15:06:56;16.63;;;8.75;;
43857;SDS011;29507;51.284;5.758;2023-05-21T15:09:22;11.20;;;7.57;;